createdAt,value
2022-07-26T00:03:53.508Z,0.7
2022-07-26T00:10:13.579Z,0.7
2022-07-26T00:16:36.539Z,0.5
2022-07-26T00:22:56.493Z,0.5
2022-07-26T00:29:19.462Z,1.1
2022-07-26T00:35:39.509Z,1.1
2022-07-26T00:42:02.504Z,0.9
2022-07-26T00:48:22.470Z,0.9
2022-07-26T00:54:45.518Z,1.4
2022-07-26T01:01:05.481Z,1.4
2022-07-26T01:07:28.531Z,0.9
2022-07-26T01:13:48.475Z,0.9
2022-07-26T01:20:11.539Z,1
2022-07-26T01:26:31.465Z,1
2022-07-26T01:32:54.566Z,0.4
2022-07-26T01:39:14.508Z,0.4
2022-07-26T01:45:37.581Z,0.3
2022-07-26T01:51:57.529Z,0.3
2022-07-26T01:58:20.542Z,1.4
2022-07-26T02:04:40.511Z,1.4
2022-07-26T02:11:03.985Z,1
2022-07-26T02:17:23.527Z,1
2022-07-26T02:23:46.491Z,0.2
2022-07-26T02:30:06.532Z,0.2
2022-07-26T02:36:29.496Z,1.8
2022-07-26T02:42:49.541Z,1.8
2022-07-26T02:49:12.552Z,0.9
2022-07-26T02:55:32.494Z,0.9
2022-07-26T03:01:55.572Z,0.4
2022-07-26T03:08:15.480Z,0.4
2022-07-26T03:14:38.549Z,0.4
2022-07-26T03:20:58.471Z,0.4
2022-07-26T03:27:21.495Z,1.2
2022-07-26T03:33:41.465Z,1.2
2022-07-26T03:40:04.510Z,2.6
2022-07-26T03:46:24.517Z,2.6
2022-07-26T04:08:54.413Z,1.4
2022-07-26T04:15:14.481Z,1.4
2022-07-26T04:21:37.538Z,1.8
2022-07-26T04:27:57.506Z,1.8
2022-07-26T04:34:20.490Z,0.3
2022-07-26T04:40:41.152Z,0.3
2022-07-26T04:47:03.465Z,1.7
2022-07-26T04:53:23.516Z,1.7
2022-07-26T04:59:58.065Z,0.6
2022-07-26T05:06:06.482Z,0.6
2022-07-26T05:12:29.532Z,1.1
2022-07-26T05:18:49.606Z,1.1
2022-07-26T05:25:12.545Z,0.8
2022-07-26T05:31:32.489Z,0.8
2022-07-26T05:37:55.516Z,1.1
2022-07-26T05:44:15.516Z,1.1
2022-07-26T05:50:38.475Z,1.6
2022-07-26T05:56:58.520Z,1.6
2022-07-26T06:03:21.480Z,1.3
2022-07-26T06:09:41.518Z,1.3
2022-07-26T06:16:04.525Z,2.8
2022-07-26T06:22:24.483Z,2.8
2022-07-26T06:28:47.528Z,1.8
2022-07-26T06:35:07.492Z,1.8
2022-07-26T06:41:30.502Z,1.3
2022-07-26T06:47:50.495Z,1.3
2022-07-26T06:54:13.516Z,2.7
2022-07-26T07:00:33.544Z,2.7
2022-07-26T07:06:56.750Z,1.7
2022-07-26T07:13:16.487Z,1.7
2022-07-26T07:19:39.516Z,2.3
2022-07-26T07:25:59.496Z,2.3
2022-07-26T07:32:22.585Z,1.9
2022-07-26T07:38:42.791Z,1.9
2022-07-26T07:45:05.487Z,1.2
2022-07-26T07:51:25.506Z,1.2
2022-07-26T07:57:48.468Z,3.9
2022-07-26T08:04:08.739Z,3.9
2022-07-26T08:10:31.468Z,2.7
2022-07-26T08:16:51.544Z,2.7
2022-07-26T08:23:14.517Z,1.6
2022-07-26T08:29:34.471Z,1.6
2022-07-26T08:35:58.649Z,2.4
2022-07-26T08:42:17.496Z,2.4
2022-07-26T08:48:40.513Z,3.2
2022-07-26T08:55:00.482Z,3.2
2022-07-26T09:01:23.535Z,3.3
2022-07-26T09:07:43.531Z,3.3
2022-07-26T09:14:06.518Z,3.5
2022-07-26T09:20:27.998Z,3.5
2022-07-26T09:26:49.528Z,5.3
2022-07-26T09:33:09.480Z,5.3
2022-07-26T09:55:58.421Z,8.9
2022-07-26T10:02:18.460Z,8.9
2022-07-26T10:08:41.490Z,6.7
2022-07-26T10:15:01.533Z,6.7
2022-07-26T10:21:24.469Z,3.8
2022-07-26T10:27:44.523Z,3.8
2022-07-26T10:34:07.648Z,3.7
2022-07-26T10:40:27.498Z,3.7
2022-07-26T10:46:50.538Z,2.6
2022-07-26T10:53:10.475Z,2.6
2022-07-26T10:59:54.659Z,4.2
2022-07-26T11:05:53.469Z,4.2
2022-07-26T11:12:16.520Z,3.3
2022-07-26T11:18:36.484Z,3.3
2022-07-26T11:24:59.479Z,2.3
2022-07-26T11:31:19.990Z,2.3
2022-07-26T11:37:42.483Z,2.8
2022-07-26T11:44:02.702Z,2.8
2022-07-26T11:50:25.953Z,1.6
2022-07-26T11:56:45.708Z,1.6
2022-07-26T12:03:08.529Z,2
2022-07-26T12:09:28.474Z,2
2022-07-26T12:15:51.799Z,0.6
2022-07-26T12:22:11.988Z,0.6
2022-07-26T12:28:34.486Z,3
2022-07-26T12:34:54.490Z,3
2022-07-26T12:41:17.470Z,3.5
2022-07-26T12:47:38.375Z,3.5
2022-07-26T12:54:02.668Z,4.4
2022-07-26T13:00:22.520Z,4.4
2022-07-26T13:06:45.484Z,3.6
2022-07-26T13:13:05.493Z,3.6
2022-07-26T13:19:28.506Z,4.2
2022-07-26T13:25:48.475Z,4.2
2022-07-26T13:32:11.539Z,2.7
2022-07-26T13:38:31.489Z,2.7
2022-07-26T13:44:54.510Z,1.3
2022-07-26T13:51:14.520Z,1.3
2022-07-26T13:57:39.326Z,3.1
2022-07-26T14:03:57.523Z,3.1
2022-07-26T14:10:20.474Z,1.8
2022-07-26T14:16:40.565Z,1.8
2022-07-26T14:23:03.494Z,2.8
2022-07-26T14:29:23.471Z,2.8
2022-07-26T14:35:46.537Z,1.5
2022-07-26T14:42:06.477Z,1.5
2022-07-26T14:48:52.133Z,2.9
2022-07-26T14:54:49.482Z,2.9
2022-07-26T15:01:12.547Z,0.7
2022-07-26T15:07:32.532Z,0.7
2022-07-26T15:13:55.652Z,0.8
2022-07-26T15:20:15.717Z,0.8
2022-07-26T15:37:00.834Z,2.3
2022-07-26T15:43:20.568Z,2.3
2022-07-26T15:49:43.476Z,2.3
2022-07-26T15:56:03.544Z,2.3
2022-07-26T16:02:26.664Z,0.7
2022-07-26T16:09:13.796Z,0.7
2022-07-26T16:15:09.482Z,0.4
2022-07-26T16:21:29.482Z,0.4
2022-07-26T16:27:52.528Z,1
2022-07-26T16:34:12.470Z,1
2022-07-26T16:40:35.533Z,1.1
2022-07-26T16:46:55.571Z,1.1
2022-07-26T16:53:18.545Z,1.3
2022-07-26T16:59:38.537Z,1.3
2022-07-26T17:06:05.870Z,1.2
2022-07-26T17:12:21.516Z,1.2
2022-07-26T17:18:44.564Z,0.1
2022-07-26T17:25:04.540Z,0.1
2022-07-26T17:31:27.473Z,1.1
2022-07-26T17:37:47.687Z,1.1
2022-07-26T17:44:10.531Z,1
2022-07-26T17:50:38.708Z,1
2022-07-26T17:56:53.475Z,0.3
2022-07-26T18:03:13.496Z,0.3
2022-07-26T18:09:36.522Z,1
2022-07-26T18:15:56.511Z,1
2022-07-26T18:22:19.510Z,0.8
2022-07-26T18:28:39.468Z,0.8
2022-07-26T18:35:02.800Z,1
2022-07-26T18:41:22.481Z,1
2022-07-26T18:47:45.734Z,0.7
2022-07-26T18:54:05.505Z,0.7
2022-07-26T19:00:28.568Z,0.5
2022-07-26T19:06:49.074Z,0.5
2022-07-26T19:13:11.483Z,5
2022-07-26T19:19:31.536Z,5
2022-07-26T19:25:54.482Z,0.7
2022-07-26T19:32:14.463Z,0.7
2022-07-26T19:38:37.528Z,0.2
2022-07-26T19:44:57.463Z,0.2
2022-07-26T19:51:20.519Z,1.4
2022-07-26T19:57:40.481Z,1.4
2022-07-26T20:04:03.492Z,0.4
2022-07-26T20:10:26.268Z,0.4
2022-07-26T20:16:46.592Z,0.4
2022-07-26T20:23:06.508Z,0.4
2022-07-26T20:29:29.486Z,1.1
2022-07-26T20:35:54.561Z,1.1
2022-07-26T20:42:13.010Z,0.4
2022-07-26T20:48:32.515Z,0.4
2022-07-26T20:54:55.518Z,0.5
2022-07-26T21:17:44.392Z,1.2
2022-07-26T21:24:04.476Z,1.2
2022-07-26T21:30:27.504Z,0.5
2022-07-26T21:36:47.504Z,0.5
2022-07-26T21:43:10.453Z,0.4
2022-07-26T21:49:30.495Z,0.4
2022-07-26T21:55:53.468Z,3.3
2022-07-26T22:02:13.501Z,3.3
2022-07-26T22:25:10.476Z,1.1
2022-07-26T22:31:30.599Z,1.1
2022-07-26T22:37:53.477Z,1.1
2022-07-26T22:44:13.513Z,1.1
2022-07-26T22:50:36.476Z,0.8
2022-07-26T22:56:56.455Z,0.8
2022-07-26T23:03:20.581Z,0.6
2022-07-26T23:09:39.460Z,0.6
2022-07-26T23:16:02.520Z,0.4
2022-07-26T23:22:22.487Z,0.4
2022-07-26T23:28:45.458Z,1.5
2022-07-26T23:35:05.527Z,1.5
2022-07-26T23:41:28.464Z,0.4
2022-07-26T23:47:48.521Z,0.4
2022-07-26T23:54:11.463Z,1.6
